sensor_id;sensor_type;location;lat;lon;timestamp;temperature;humidity
37204;DHT22;23098;48.054;10.636;2022-12-08T00:00:43;0.60;99.90
37204;DHT22;23098;48.054;10.636;2022-12-08T00:03:08;0.60;99.90
37204;DHT22;23098;48.054;10.636;2022-12-08T00:05:34;0.60;99.90
37204;DHT22;23098;48.054;10.636;2022-12-08T00:08:18;0.60;99.90
37204;DHT22;23098;48.054;10.636;2022-12-08T00:11:02;0.50;99.90
37204;DHT22;23098;48.054;10.636;2022-12-08T00:13:28;0.50;99.90
37204;DHT22;23098;48.054;10.636;2022-12-08T00:15:59;0.60;99.90
37204;DHT22;23098;48.054;10.636;2022-12-08T00:18:25;0.60;99.90
37204;DHT22;23098;48.054;10.636;2022-12-08T00:20:57;0.60;99.90
37204;DHT22;23098;48.054;10.636;2022-12-08T00:23:23;0.60;99.90
37204;DHT22;23098;48.054;10.636;2022-12-08T00:25:50;0.50;99.90
37204;DHT22;23098;48.054;10.636;2022-12-08T00:28:15;0.60;99.90
37204;DHT22;23098;48.054;10.636;2022-12-08T00:30:41;0.50;99.90
37204;DHT22;23098;48.054;10.636;2022-12-08T00:33:07;0.50;99.90
37204;DHT22;23098;48.054;10.636;2022-12-08T00:35:33;0.50;99.90
37204;DHT22;23098;48.054;10.636;2022-12-08T00:37:59;0.50;99.90
37204;DHT22;23098;48.054;10.636;2022-12-08T00:40:25;0.50;99.90
37204;DHT22;23098;48.054;10.636;2022-12-08T00:42:50;0.50;99.90
37204;DHT22;23098;48.054;10.636;2022-12-08T00:45:16;0.50;99.90
37204;DHT22;23098;48.054;10.636;2022-12-08T00:47:41;0.50;99.90
37204;DHT22;23098;48.054;10.636;2022-12-08T00:50:07;0.50;99.90
37204;DHT22;23098;48.054;10.636;2022-12-08T00:52:33;0.60;99.90
37204;DHT22;23098;48.054;10.636;2022-12-08T00:54:59;0.60;99.90
37204;DHT22;23098;48.054;10.636;2022-12-08T00:57:24;0.60;99.90
37204;DHT22;23098;48.054;10.636;2022-12-08T00:59:50;0.50;99.90
37204;DHT22;23098;48.054;10.636;2022-12-08T01:02:15;0.40;99.90
37204;DHT22;23098;48.054;10.636;2022-12-08T01:04:41;0.40;99.90
37204;DHT22;23098;48.054;10.636;2022-12-08T01:07:06;0.50;99.90
37204;DHT22;23098;48.054;10.636;2022-12-08T01:09:32;0.50;99.90
37204;DHT22;23098;48.054;10.636;2022-12-08T01:11:58;0.50;99.90
37204;DHT22;23098;48.054;10.636;2022-12-08T01:14:23;0.50;99.90
37204;DHT22;23098;48.054;10.636;2022-12-08T01:16:49;0.50;99.90
37204;DHT22;23098;48.054;10.636;2022-12-08T01:19:15;0.40;99.90
37204;DHT22;23098;48.054;10.636;2022-12-08T01:21:42;0.50;99.90
37204;DHT22;23098;48.054;10.636;2022-12-08T01:24:13;0.50;99.90
37204;DHT22;23098;48.054;10.636;2022-12-08T01:26:39;0.50;99.90
37204;DHT22;23098;48.054;10.636;2022-12-08T01:29:05;0.50;99.90
37204;DHT22;23098;48.054;10.636;2022-12-08T01:31:31;0.50;99.90
37204;DHT22;23098;48.054;10.636;2022-12-08T01:33:56;0.60;99.90
37204;DHT22;23098;48.054;10.636;2022-12-08T01:36:28;0.50;99.90
37204;DHT22;23098;48.054;10.636;2022-12-08T01:38:56;0.50;99.90
37204;DHT22;23098;48.054;10.636;2022-12-08T01:41:24;0.60;99.90
37204;DHT22;23098;48.054;10.636;2022-12-08T01:46:34;0.60;99.90
37204;DHT22;23098;48.054;10.636;2022-12-08T01:49:22;0.60;99.90
37204;DHT22;23098;48.054;10.636;2022-12-08T01:54:48;0.60;99.90
37204;DHT22;23098;48.054;10.636;2022-12-08T01:57:22;0.60;99.90
37204;DHT22;23098;48.054;10.636;2022-12-08T01:59:55;0.60;99.90
37204;DHT22;23098;48.054;10.636;2022-12-08T02:02:24;0.60;99.90
37204;DHT22;23098;48.054;10.636;2022-12-08T02:04:50;0.60;99.90
37204;DHT22;23098;48.054;10.636;2022-12-08T02:07:16;0.60;99.90
37204;DHT22;23098;48.054;10.636;2022-12-08T02:09:43;0.60;99.90
37204;DHT22;23098;48.054;10.636;2022-12-08T02:12:09;0.50;99.90
37204;DHT22;23098;48.054;10.636;2022-12-08T02:14:35;0.50;99.90
37204;DHT22;23098;48.054;10.636;2022-12-08T02:20:05;0.50;99.90
37204;DHT22;23098;48.054;10.636;2022-12-08T02:22:58;0.40;99.90
37204;DHT22;23098;48.054;10.636;2022-12-08T02:26:03;0.50;99.90
37204;DHT22;23098;48.054;10.636;2022-12-08T02:29:04;0.50;99.90
37204;DHT22;23098;48.054;10.636;2022-12-08T02:34:36;0.50;99.90
37204;DHT22;23098;48.054;10.636;2022-12-08T02:37:30;0.50;99.90
37204;DHT22;23098;48.054;10.636;2022-12-08T02:40:02;0.50;99.90
37204;DHT22;23098;48.054;10.636;2022-12-08T02:42:44;0.50;99.90
37204;DHT22;23098;48.054;10.636;2022-12-08T02:45:16;0.50;99.90
37204;DHT22;23098;48.054;10.636;2022-12-08T02:47:43;0.50;99.90
37204;DHT22;23098;48.054;10.636;2022-12-08T02:50:09;0.50;99.90
37204;DHT22;23098;48.054;10.636;2022-12-08T02:52:53;0.50;99.90
37204;DHT22;23098;48.054;10.636;2022-12-08T02:55:28;0.50;99.90
37204;DHT22;23098;48.054;10.636;2022-12-08T03:04:22;0.50;99.90
37204;DHT22;23098;48.054;10.636;2022-12-08T03:06:47;0.50;99.90
37204;DHT22;23098;48.054;10.636;2022-12-08T03:11:46;0.50;99.90
37204;DHT22;23098;48.054;10.636;2022-12-08T03:14:16;0.40;99.90
37204;DHT22;23098;48.054;10.636;2022-12-08T03:16:45;0.50;99.90
37204;DHT22;23098;48.054;10.636;2022-12-08T03:19:20;0.40;99.90
37204;DHT22;23098;48.054;10.636;2022-12-08T03:21:50;0.50;99.90
37204;DHT22;23098;48.054;10.636;2022-12-08T03:24:18;0.50;99.90
37204;DHT22;23098;48.054;10.636;2022-12-08T03:26:56;0.50;99.90
37204;DHT22;23098;48.054;10.636;2022-12-08T03:29:23;0.50;99.90
37204;DHT22;23098;48.054;10.636;2022-12-08T03:31:56;0.50;99.90
37204;DHT22;23098;48.054;10.636;2022-12-08T03:34:25;0.50;99.90
37204;DHT22;23098;48.054;10.636;2022-12-08T03:36:52;0.50;99.90
37204;DHT22;23098;48.054;10.636;2022-12-08T03:39:17;0.50;99.90
37204;DHT22;23098;48.054;10.636;2022-12-08T03:41:44;0.40;99.90
37204;DHT22;23098;48.054;10.636;2022-12-08T03:44:09;0.40;99.90
37204;DHT22;23098;48.054;10.636;2022-12-08T03:46:35;0.40;99.90
37204;DHT22;23098;48.054;10.636;2022-12-08T03:49:00;0.40;99.90
37204;DHT22;23098;48.054;10.636;2022-12-08T03:51:26;0.50;99.90
37204;DHT22;23098;48.054;10.636;2022-12-08T03:53:51;0.50;99.90
37204;DHT22;23098;48.054;10.636;2022-12-08T03:56:26;0.50;99.90
37204;DHT22;23098;48.054;10.636;2022-12-08T03:58:53;0.50;99.90
37204;DHT22;23098;48.054;10.636;2022-12-08T04:01:19;0.50;99.90
37204;DHT22;23098;48.054;10.636;2022-12-08T04:03:45;0.50;99.90
37204;DHT22;23098;48.054;10.636;2022-12-08T04:06:10;0.40;99.90
37204;DHT22;23098;48.054;10.636;2022-12-08T04:08:36;0.40;99.90
37204;DHT22;23098;48.054;10.636;2022-12-08T04:11:02;0.40;99.90
37204;DHT22;23098;48.054;10.636;2022-12-08T04:13:27;0.50;99.90
37204;DHT22;23098;48.054;10.636;2022-12-08T04:15:53;0.50;99.90
37204;DHT22;23098;48.054;10.636;2022-12-08T04:18:18;0.50;99.90
37204;DHT22;23098;48.054;10.636;2022-12-08T04:20:44;0.40;99.90
37204;DHT22;23098;48.054;10.636;2022-12-08T04:23:11;0.40;99.90
37204;DHT22;23098;48.054;10.636;2022-12-08T04:25:37;0.40;99.90
37204;DHT22;23098;48.054;10.636;2022-12-08T04:28:03;0.40;99.90
37204;DHT22;23098;48.054;10.636;2022-12-08T04:30:29;0.50;99.90
37204;DHT22;23098;48.054;10.636;2022-12-08T04:32:55;0.50;99.90
37204;DHT22;23098;48.054;10.636;2022-12-08T04:35:20;0.40;99.90
37204;DHT22;23098;48.054;10.636;2022-12-08T04:37:46;0.40;99.90
37204;DHT22;23098;48.054;10.636;2022-12-08T04:40:12;0.40;99.90
37204;DHT22;23098;48.054;10.636;2022-12-08T04:42:38;0.40;99.90
37204;DHT22;23098;48.054;10.636;2022-12-08T04:45:04;0.30;99.90
37204;DHT22;23098;48.054;10.636;2022-12-08T04:47:29;0.40;99.90
37204;DHT22;23098;48.054;10.636;2022-12-08T04:49:55;0.40;99.90
37204;DHT22;23098;48.054;10.636;2022-12-08T04:52:21;0.40;99.90
37204;DHT22;23098;48.054;10.636;2022-12-08T04:54:46;0.40;99.90
37204;DHT22;23098;48.054;10.636;2022-12-08T04:57:12;0.40;99.90
37204;DHT22;23098;48.054;10.636;2022-12-08T04:59:37;0.50;99.90
37204;DHT22;23098;48.054;10.636;2022-12-08T05:02:03;0.50;99.90
37204;DHT22;23098;48.054;10.636;2022-12-08T05:04:29;0.40;99.90
37204;DHT22;23098;48.054;10.636;2022-12-08T05:06:54;0.40;99.90
37204;DHT22;23098;48.054;10.636;2022-12-08T05:09:20;0.40;99.90
37204;DHT22;23098;48.054;10.636;2022-12-08T05:11:45;0.40;99.90
37204;DHT22;23098;48.054;10.636;2022-12-08T05:14:12;0.40;99.90
37204;DHT22;23098;48.054;10.636;2022-12-08T05:16:40;0.50;99.90
37204;DHT22;23098;48.054;10.636;2022-12-08T05:19:05;0.50;99.90
37204;DHT22;23098;48.054;10.636;2022-12-08T05:21:31;0.50;99.90
37204;DHT22;23098;48.054;10.636;2022-12-08T05:23:56;0.50;99.90
37204;DHT22;23098;48.054;10.636;2022-12-08T05:26:22;0.50;99.90
37204;DHT22;23098;48.054;10.636;2022-12-08T05:28:47;0.50;99.90
37204;DHT22;23098;48.054;10.636;2022-12-08T05:31:14;0.50;99.90
37204;DHT22;23098;48.054;10.636;2022-12-08T05:33:40;0.40;99.90
37204;DHT22;23098;48.054;10.636;2022-12-08T05:36:07;0.40;99.90
37204;DHT22;23098;48.054;10.636;2022-12-08T05:38:33;0.40;99.90
37204;DHT22;23098;48.054;10.636;2022-12-08T05:40:59;0.50;99.90
37204;DHT22;23098;48.054;10.636;2022-12-08T05:43:25;0.50;99.90
37204;DHT22;23098;48.054;10.636;2022-12-08T05:45:51;0.50;99.90
37204;DHT22;23098;48.054;10.636;2022-12-08T05:48:17;0.40;99.90
37204;DHT22;23098;48.054;10.636;2022-12-08T05:50:47;0.40;99.90
37204;DHT22;23098;48.054;10.636;2022-12-08T05:53:14;0.50;99.90
37204;DHT22;23098;48.054;10.636;2022-12-08T05:55:39;0.40;99.90
37204;DHT22;23098;48.054;10.636;2022-12-08T05:58:05;0.40;99.90
37204;DHT22;23098;48.054;10.636;2022-12-08T06:00:31;0.40;99.90
37204;DHT22;23098;48.054;10.636;2022-12-08T06:02:59;0.30;99.90
37204;DHT22;23098;48.054;10.636;2022-12-08T06:05:25;0.40;99.90
37204;DHT22;23098;48.054;10.636;2022-12-08T06:07:50;0.40;99.90
37204;DHT22;23098;48.054;10.636;2022-12-08T06:10:16;0.50;99.90
37204;DHT22;23098;48.054;10.636;2022-12-08T06:12:41;0.50;99.90
37204;DHT22;23098;48.054;10.636;2022-12-08T06:15:07;0.50;99.90
37204;DHT22;23098;48.054;10.636;2022-12-08T06:17:32;0.50;99.90
37204;DHT22;23098;48.054;10.636;2022-12-08T06:19:58;0.50;99.90
37204;DHT22;23098;48.054;10.636;2022-12-08T06:22:24;0.50;99.90
37204;DHT22;23098;48.054;10.636;2022-12-08T06:24:50;0.50;99.90
37204;DHT22;23098;48.054;10.636;2022-12-08T06:27:15;0.50;99.90
37204;DHT22;23098;48.054;10.636;2022-12-08T06:29:41;0.50;99.90
37204;DHT22;23098;48.054;10.636;2022-12-08T06:32:06;0.50;99.90
37204;DHT22;23098;48.054;10.636;2022-12-08T06:34:32;0.50;99.90
37204;DHT22;23098;48.054;10.636;2022-12-08T06:36:57;0.50;99.90
37204;DHT22;23098;48.054;10.636;2022-12-08T06:39:23;0.40;99.90
37204;DHT22;23098;48.054;10.636;2022-12-08T06:41:48;0.40;99.90
37204;DHT22;23098;48.054;10.636;2022-12-08T06:44:32;0.40;99.90
37204;DHT22;23098;48.054;10.636;2022-12-08T06:46:58;0.40;99.90
37204;DHT22;23098;48.054;10.636;2022-12-08T06:49:23;0.50;99.90
37204;DHT22;23098;48.054;10.636;2022-12-08T06:51:49;0.50;99.90
37204;DHT22;23098;48.054;10.636;2022-12-08T06:54:14;0.50;99.90
37204;DHT22;23098;48.054;10.636;2022-12-08T06:56:40;0.50;99.90
37204;DHT22;23098;48.054;10.636;2022-12-08T06:59:05;0.50;99.90
37204;DHT22;23098;48.054;10.636;2022-12-08T07:01:31;0.60;99.90
37204;DHT22;23098;48.054;10.636;2022-12-08T07:03:56;0.60;99.90
37204;DHT22;23098;48.054;10.636;2022-12-08T07:06:23;0.60;99.90
37204;DHT22;23098;48.054;10.636;2022-12-08T07:08:49;0.60;99.90
37204;DHT22;23098;48.054;10.636;2022-12-08T07:11:15;0.60;99.90
37204;DHT22;23098;48.054;10.636;2022-12-08T07:13:41;0.60;99.90
37204;DHT22;23098;48.054;10.636;2022-12-08T07:16:08;0.60;99.90
37204;DHT22;23098;48.054;10.636;2022-12-08T07:18:34;0.70;99.90
37204;DHT22;23098;48.054;10.636;2022-12-08T07:21:09;0.70;99.90
37204;DHT22;23098;48.054;10.636;2022-12-08T07:23:36;0.80;99.90
37204;DHT22;23098;48.054;10.636;2022-12-08T07:26:03;0.80;99.90
37204;DHT22;23098;48.054;10.636;2022-12-08T07:28:34;0.70;99.90
37204;DHT22;23098;48.054;10.636;2022-12-08T07:31:00;0.80;99.90
37204;DHT22;23098;48.054;10.636;2022-12-08T07:33:26;0.90;99.90
37204;DHT22;23098;48.054;10.636;2022-12-08T07:35:56;0.80;99.90
37204;DHT22;23098;48.054;10.636;2022-12-08T07:38:22;0.80;99.90
37204;DHT22;23098;48.054;10.636;2022-12-08T07:40:49;0.90;99.90
37204;DHT22;23098;48.054;10.636;2022-12-08T07:43:14;0.90;99.90
37204;DHT22;23098;48.054;10.636;2022-12-08T07:45:40;0.90;99.90
37204;DHT22;23098;48.054;10.636;2022-12-08T07:48:06;1.00;99.90
37204;DHT22;23098;48.054;10.636;2022-12-08T07:50:32;1.00;99.90
37204;DHT22;23098;48.054;10.636;2022-12-08T07:52:57;1.00;99.90
37204;DHT22;23098;48.054;10.636;2022-12-08T07:55:23;1.00;99.90
37204;DHT22;23098;48.054;10.636;2022-12-08T07:57:49;1.00;99.90
37204;DHT22;23098;48.054;10.636;2022-12-08T08:00:15;1.10;99.90
37204;DHT22;23098;48.054;10.636;2022-12-08T08:02:41;1.10;99.90
37204;DHT22;23098;48.054;10.636;2022-12-08T08:05:07;1.10;99.90
37204;DHT22;23098;48.054;10.636;2022-12-08T08:07:33;1.20;99.90
37204;DHT22;23098;48.054;10.636;2022-12-08T08:09:59;1.10;99.90
37204;DHT22;23098;48.054;10.636;2022-12-08T08:12:25;1.10;99.90
37204;DHT22;23098;48.054;10.636;2022-12-08T08:14:50;1.20;99.90
37204;DHT22;23098;48.054;10.636;2022-12-08T08:17:16;1.20;99.90
37204;DHT22;23098;48.054;10.636;2022-12-08T08:19:41;1.30;99.90
37204;DHT22;23098;48.054;10.636;2022-12-08T08:22:07;1.40;99.90
37204;DHT22;23098;48.054;10.636;2022-12-08T08:24:32;1.40;99.90
37204;DHT22;23098;48.054;10.636;2022-12-08T08:26:58;1.40;99.90
37204;DHT22;23098;48.054;10.636;2022-12-08T08:29:23;1.40;99.90
37204;DHT22;23098;48.054;10.636;2022-12-08T08:31:49;1.50;99.90
37204;DHT22;23098;48.054;10.636;2022-12-08T08:34:15;1.60;99.90
37204;DHT22;23098;48.054;10.636;2022-12-08T08:36:40;1.60;99.90
37204;DHT22;23098;48.054;10.636;2022-12-08T08:39:06;1.60;99.90
37204;DHT22;23098;48.054;10.636;2022-12-08T08:41:32;1.50;99.90
37204;DHT22;23098;48.054;10.636;2022-12-08T08:43:58;1.50;99.90
37204;DHT22;23098;48.054;10.636;2022-12-08T08:46:23;1.60;99.90
37204;DHT22;23098;48.054;10.636;2022-12-08T08:48:49;1.70;99.90
37204;DHT22;23098;48.054;10.636;2022-12-08T08:51:14;1.90;99.90
37204;DHT22;23098;48.054;10.636;2022-12-08T08:53:40;1.90;99.90
37204;DHT22;23098;48.054;10.636;2022-12-08T08:56:11;1.80;99.90
37204;DHT22;23098;48.054;10.636;2022-12-08T08:58:37;1.70;99.90
37204;DHT22;23098;48.054;10.636;2022-12-08T09:01:02;1.80;99.90
37204;DHT22;23098;48.054;10.636;2022-12-08T09:03:28;1.70;99.90
37204;DHT22;23098;48.054;10.636;2022-12-08T09:05:54;1.60;99.90
37204;DHT22;23098;48.054;10.636;2022-12-08T09:08:20;1.60;99.90
37204;DHT22;23098;48.054;10.636;2022-12-08T09:10:45;1.80;99.90
37204;DHT22;23098;48.054;10.636;2022-12-08T09:13:11;1.60;99.90
37204;DHT22;23098;48.054;10.636;2022-12-08T09:15:36;1.70;99.90
37204;DHT22;23098;48.054;10.636;2022-12-08T09:18:02;1.70;99.90
37204;DHT22;23098;48.054;10.636;2022-12-08T09:20:27;1.60;99.90
37204;DHT22;23098;48.054;10.636;2022-12-08T09:22:53;1.70;99.90
37204;DHT22;23098;48.054;10.636;2022-12-08T09:25:19;1.40;99.90
37204;DHT22;23098;48.054;10.636;2022-12-08T09:27:44;1.40;99.90
37204;DHT22;23098;48.054;10.636;2022-12-08T09:30:10;1.50;99.90
37204;DHT22;23098;48.054;10.636;2022-12-08T09:32:35;1.40;99.90
37204;DHT22;23098;48.054;10.636;2022-12-08T09:35:01;1.30;99.90
37204;DHT22;23098;48.054;10.636;2022-12-08T09:37:26;1.20;99.90
37204;DHT22;23098;48.054;10.636;2022-12-08T09:39:52;1.20;99.90
37204;DHT22;23098;48.054;10.636;2022-12-08T09:42:46;1.40;99.90
37204;DHT22;23098;48.054;10.636;2022-12-08T09:45:15;1.60;99.90
37204;DHT22;23098;48.054;10.636;2022-12-08T09:50:38;1.70;99.90
37204;DHT22;23098;48.054;10.636;2022-12-08T09:53:11;1.70;99.90
37204;DHT22;23098;48.054;10.636;2022-12-08T09:55:49;1.70;99.90
37204;DHT22;23098;48.054;10.636;2022-12-08T10:01:08;1.90;99.90
37204;DHT22;23098;48.054;10.636;2022-12-08T10:03:34;1.90;99.90
37204;DHT22;23098;48.054;10.636;2022-12-08T10:06:09;2.00;99.90
37204;DHT22;23098;48.054;10.636;2022-12-08T10:08:54;2.10;99.90
37204;DHT22;23098;48.054;10.636;2022-12-08T10:11:35;1.90;99.90
37204;DHT22;23098;48.054;10.636;2022-12-08T10:14:33;1.80;99.90
37204;DHT22;23098;48.054;10.636;2022-12-08T10:17:08;1.80;99.90
37204;DHT22;23098;48.054;10.636;2022-12-08T10:19:39;2.00;99.90
37204;DHT22;23098;48.054;10.636;2022-12-08T10:22:24;2.20;99.90
37204;DHT22;23098;48.054;10.636;2022-12-08T10:24:59;2.20;99.90
37204;DHT22;23098;48.054;10.636;2022-12-08T10:27:25;2.20;99.90
37204;DHT22;23098;48.054;10.636;2022-12-08T10:29:51;2.20;99.90
37204;DHT22;23098;48.054;10.636;2022-12-08T10:32:23;2.30;99.90
37204;DHT22;23098;48.054;10.636;2022-12-08T10:35:08;2.10;99.90
37204;DHT22;23098;48.054;10.636;2022-12-08T10:37:34;2.30;99.90
37204;DHT22;23098;48.054;10.636;2022-12-08T10:40:22;2.40;99.90
37204;DHT22;23098;48.054;10.636;2022-12-08T10:42:50;2.60;99.90
37204;DHT22;23098;48.054;10.636;2022-12-08T10:48:13;2.70;99.90
37204;DHT22;23098;48.054;10.636;2022-12-08T10:53:23;2.90;99.90
37204;DHT22;23098;48.054;10.636;2022-12-08T10:58:27;2.90;99.90
37204;DHT22;23098;48.054;10.636;2022-12-08T11:01:39;3.10;99.90
37204;DHT22;23098;48.054;10.636;2022-12-08T11:04:11;2.90;99.90
37204;DHT22;23098;48.054;10.636;2022-12-08T11:06:38;2.70;99.90
37204;DHT22;23098;48.054;10.636;2022-12-08T11:17:22;2.40;99.90
37204;DHT22;23098;48.054;10.636;2022-12-08T11:22:43;2.30;99.90
37204;DHT22;23098;48.054;10.636;2022-12-08T11:25:18;2.20;99.90
37204;DHT22;23098;48.054;10.636;2022-12-08T11:27:47;2.30;99.90
37204;DHT22;23098;48.054;10.636;2022-12-08T11:30:22;2.40;99.90
37204;DHT22;23098;48.054;10.636;2022-12-08T11:33:13;2.40;99.90
37204;DHT22;23098;48.054;10.636;2022-12-08T11:35:43;2.40;99.90
37204;DHT22;23098;48.054;10.636;2022-12-08T11:38:14;2.60;99.90
37204;DHT22;23098;48.054;10.636;2022-12-08T11:40:42;2.50;99.90
37204;DHT22;23098;48.054;10.636;2022-12-08T11:43:15;2.40;99.90
37204;DHT22;23098;48.054;10.636;2022-12-08T11:45:42;2.40;99.90
37204;DHT22;23098;48.054;10.636;2022-12-08T11:48:16;2.30;99.90
37204;DHT22;23098;48.054;10.636;2022-12-08T11:50:52;2.40;99.90
37204;DHT22;23098;48.054;10.636;2022-12-08T11:56:20;2.50;99.90
37204;DHT22;23098;48.054;10.636;2022-12-08T11:58:55;2.40;99.90
37204;DHT22;23098;48.054;10.636;2022-12-08T12:01:23;2.40;99.90
37204;DHT22;23098;48.054;10.636;2022-12-08T12:07:04;2.50;99.90
37204;DHT22;23098;48.054;10.636;2022-12-08T12:18:13;2.70;99.90
37204;DHT22;23098;48.054;10.636;2022-12-08T12:20:56;2.70;99.90
37204;DHT22;23098;48.054;10.636;2022-12-08T12:25:59;2.70;99.90
37204;DHT22;23098;48.054;10.636;2022-12-08T12:28:29;2.60;99.90
37204;DHT22;23098;48.054;10.636;2022-12-08T12:30:57;2.30;99.90
37204;DHT22;23098;48.054;10.636;2022-12-08T12:33:25;2.20;99.90
37204;DHT22;23098;48.054;10.636;2022-12-08T12:35:51;2.50;99.90
37204;DHT22;23098;48.054;10.636;2022-12-08T12:38:26;2.50;99.90
37204;DHT22;23098;48.054;10.636;2022-12-08T12:41:13;2.50;99.90
37204;DHT22;23098;48.054;10.636;2022-12-08T12:52:02;2.60;99.90
37204;DHT22;23098;48.054;10.636;2022-12-08T12:54:28;2.60;99.90
37204;DHT22;23098;48.054;10.636;2022-12-08T12:56:56;2.60;99.90
37204;DHT22;23098;48.054;10.636;2022-12-08T13:02:31;2.60;99.90
37204;DHT22;23098;48.054;10.636;2022-12-08T13:04:59;2.70;99.90
37204;DHT22;23098;48.054;10.636;2022-12-08T13:07:32;3.00;99.90
37204;DHT22;23098;48.054;10.636;2022-12-08T13:10:12;3.00;99.90
37204;DHT22;23098;48.054;10.636;2022-12-08T13:12:40;3.30;99.90
37204;DHT22;23098;48.054;10.636;2022-12-08T13:15:16;3.30;99.90
37204;DHT22;23098;48.054;10.636;2022-12-08T13:17:44;3.20;99.90
37204;DHT22;23098;48.054;10.636;2022-12-08T13:20:22;2.90;99.90
37204;DHT22;23098;48.054;10.636;2022-12-08T13:26:20;2.70;99.90
37204;DHT22;23098;48.054;10.636;2022-12-08T13:31:42;2.80;99.90
37204;DHT22;23098;48.054;10.636;2022-12-08T13:36:51;2.90;99.90
37204;DHT22;23098;48.054;10.636;2022-12-08T13:39:28;3.10;99.90
37204;DHT22;23098;48.054;10.636;2022-12-08T13:41:59;2.90;99.90
37204;DHT22;23098;48.054;10.636;2022-12-08T13:44:36;2.90;99.90
37204;DHT22;23098;48.054;10.636;2022-12-08T13:47:04;2.90;99.90
37204;DHT22;23098;48.054;10.636;2022-12-08T13:49:39;2.90;99.90
37204;DHT22;23098;48.054;10.636;2022-12-08T13:52:14;2.70;99.90
37204;DHT22;23098;48.054;10.636;2022-12-08T13:54:40;2.60;99.90
37204;DHT22;23098;48.054;10.636;2022-12-08T13:57:11;2.60;99.90
37204;DHT22;23098;48.054;10.636;2022-12-08T13:59:43;2.60;99.90
37204;DHT22;23098;48.054;10.636;2022-12-08T14:02:19;2.50;99.90
37204;DHT22;23098;48.054;10.636;2022-12-08T14:04:50;2.60;99.90
37204;DHT22;23098;48.054;10.636;2022-12-08T14:07:16;2.40;99.90
37204;DHT22;23098;48.054;10.636;2022-12-08T14:09:42;2.50;99.90
37204;DHT22;23098;48.054;10.636;2022-12-08T14:12:33;2.50;99.90
37204;DHT22;23098;48.054;10.636;2022-12-08T14:15:04;2.60;99.90
37204;DHT22;23098;48.054;10.636;2022-12-08T14:17:31;2.40;99.90
37204;DHT22;23098;48.054;10.636;2022-12-08T14:19:58;2.50;99.90
37204;DHT22;23098;48.054;10.636;2022-12-08T14:22:33;2.40;99.90
37204;DHT22;23098;48.054;10.636;2022-12-08T14:24:59;2.40;99.90
37204;DHT22;23098;48.054;10.636;2022-12-08T14:27:26;2.40;99.90
37204;DHT22;23098;48.054;10.636;2022-12-08T14:29:57;2.40;99.90
37204;DHT22;23098;48.054;10.636;2022-12-08T14:32:27;2.40;99.90
37204;DHT22;23098;48.054;10.636;2022-12-08T14:37:39;2.30;99.90
37204;DHT22;23098;48.054;10.636;2022-12-08T14:42:50;2.30;99.90
37204;DHT22;23098;48.054;10.636;2022-12-08T14:45:17;2.20;99.90
37204;DHT22;23098;48.054;10.636;2022-12-08T14:47:43;2.20;99.90
37204;DHT22;23098;48.054;10.636;2022-12-08T14:53:13;2.10;99.90
37204;DHT22;23098;48.054;10.636;2022-12-08T14:55:42;2.10;99.90
37204;DHT22;23098;48.054;10.636;2022-12-08T14:58:49;2.10;99.90
37204;DHT22;23098;48.054;10.636;2022-12-08T15:01:07;2.10;99.90
37204;DHT22;23098;48.054;10.636;2022-12-08T15:03:36;2.00;99.90
37204;DHT22;23098;48.054;10.636;2022-12-08T15:06:04;2.00;99.90
37204;DHT22;23098;48.054;10.636;2022-12-08T15:08:31;2.00;99.90
37204;DHT22;23098;48.054;10.636;2022-12-08T15:11:23;1.90;99.90
37204;DHT22;23098;48.054;10.636;2022-12-08T15:13:51;1.90;99.90
37204;DHT22;23098;48.054;10.636;2022-12-08T15:19:14;1.90;99.90
37204;DHT22;23098;48.054;10.636;2022-12-08T15:21:42;1.90;99.90
37204;DHT22;23098;48.054;10.636;2022-12-08T15:24:11;1.80;99.90
37204;DHT22;23098;48.054;10.636;2022-12-08T15:26:46;1.80;99.90
37204;DHT22;23098;48.054;10.636;2022-12-08T15:31:42;1.70;99.90
37204;DHT22;23098;48.054;10.636;2022-12-08T15:34:08;1.70;99.90
37204;DHT22;23098;48.054;10.636;2022-12-08T15:36:33;1.70;99.90
37204;DHT22;23098;48.054;10.636;2022-12-08T15:38:59;1.70;99.90
37204;DHT22;23098;48.054;10.636;2022-12-08T15:41:24;1.70;99.90
37204;DHT22;23098;48.054;10.636;2022-12-08T15:43:50;1.60;99.90
37204;DHT22;23098;48.054;10.636;2022-12-08T15:46:15;1.60;99.90
37204;DHT22;23098;48.054;10.636;2022-12-08T15:48:41;1.60;99.90
37204;DHT22;23098;48.054;10.636;2022-12-08T15:51:07;1.60;99.90
37204;DHT22;23098;48.054;10.636;2022-12-08T15:53:32;1.50;99.90
37204;DHT22;23098;48.054;10.636;2022-12-08T15:56:03;1.50;99.90
37204;DHT22;23098;48.054;10.636;2022-12-08T15:58:30;1.50;99.90
37204;DHT22;23098;48.054;10.636;2022-12-08T16:00:55;1.50;99.90
37204;DHT22;23098;48.054;10.636;2022-12-08T16:03:23;1.50;99.90
37204;DHT22;23098;48.054;10.636;2022-12-08T16:05:49;1.60;99.90
37204;DHT22;23098;48.054;10.636;2022-12-08T16:08:16;1.60;99.90
37204;DHT22;23098;48.054;10.636;2022-12-08T16:10:42;1.50;99.90
37204;DHT22;23098;48.054;10.636;2022-12-08T16:13:15;1.50;99.90
37204;DHT22;23098;48.054;10.636;2022-12-08T16:16:01;1.50;99.90
37204;DHT22;23098;48.054;10.636;2022-12-08T16:18:31;1.50;99.90
37204;DHT22;23098;48.054;10.636;2022-12-08T16:20:58;1.50;99.90
37204;DHT22;23098;48.054;10.636;2022-12-08T16:23:23;1.50;99.90
37204;DHT22;23098;48.054;10.636;2022-12-08T16:25:49;1.50;99.90
37204;DHT22;23098;48.054;10.636;2022-12-08T16:28:14;1.50;99.90
37204;DHT22;23098;48.054;10.636;2022-12-08T16:30:40;1.40;99.90
37204;DHT22;23098;48.054;10.636;2022-12-08T16:33:10;1.40;99.90
37204;DHT22;23098;48.054;10.636;2022-12-08T16:35:36;1.30;99.90
37204;DHT22;23098;48.054;10.636;2022-12-08T16:38:02;1.20;99.90
37204;DHT22;23098;48.054;10.636;2022-12-08T16:40:29;1.20;99.90
37204;DHT22;23098;48.054;10.636;2022-12-08T16:42:54;1.10;99.90
37204;DHT22;23098;48.054;10.636;2022-12-08T16:45:28;1.00;99.90
37204;DHT22;23098;48.054;10.636;2022-12-08T16:47:56;1.00;99.90
37204;DHT22;23098;48.054;10.636;2022-12-08T16:50:28;0.90;99.90
37204;DHT22;23098;48.054;10.636;2022-12-08T16:53:00;0.90;99.90
37204;DHT22;23098;48.054;10.636;2022-12-08T16:55:26;0.90;99.90
37204;DHT22;23098;48.054;10.636;2022-12-08T16:57:52;0.80;99.90
37204;DHT22;23098;48.054;10.636;2022-12-08T17:00:21;0.80;99.90
37204;DHT22;23098;48.054;10.636;2022-12-08T17:02:47;0.80;99.90
37204;DHT22;23098;48.054;10.636;2022-12-08T17:05:14;0.80;99.90
37204;DHT22;23098;48.054;10.636;2022-12-08T17:07:41;0.80;99.90
37204;DHT22;23098;48.054;10.636;2022-12-08T17:10:08;0.80;99.90
37204;DHT22;23098;48.054;10.636;2022-12-08T17:12:34;0.80;99.90
37204;DHT22;23098;48.054;10.636;2022-12-08T17:15:09;0.80;99.90
37204;DHT22;23098;48.054;10.636;2022-12-08T17:17:35;0.80;99.90